Time;durP1;ratioP1;P1;durP2;ratioP2;P2;SDS_P1;SDS_P2;PMS_P1;PMS_P2;Temp;Humidity;BMP_temperature;BMP_pressure;BME280_temperature;BME280_humidity;BME280_pressure;Samples;Min_cycle;Max_cycle;Signal;HPM_P1;HPM_P2
2023/07/31 03:58:00;;;;;;;3.12;2.58;;;;;;;17.71;100.00;100117.66;6111507;27;20153;-86
2023/07/31 04:01:03;;;;;;;3.80;2.30;;;;;;;17.78;100.00;100118.41;5400452;33;32805;-86
2023/07/31 04:04:06;;;;;;;2.47;2.28;;;;;;;17.94;100.00;100117.78;5401525;32;33903;-88
2023/07/31 04:07:09;;;;;;;3.12;2.45;;;;;;;18.01;100.00;100121.22;5411274;33;35467;-85
2023/07/31 04:10:12;;;;;;;2.92;2.30;;;;;;;18.04;100.00;100126.19;5404804;32;35339;-85
2023/07/31 04:13:15;;;;;;;3.00;2.28;;;;;;;18.12;100.00;100127.75;5384888;33;34097;-85
2023/07/31 04:16:18;;;;;;;3.05;2.50;;;;;;;18.19;100.00;100127.66;5396802;32;34615;-85
2023/07/31 04:19:21;;;;;;;3.25;2.47;;;;;;;18.25;100.00;100130.28;5398291;33;33842;-85
2023/07/31 04:22:24;;;;;;;3.70;1.98;;;;;;;18.34;100.00;100128.06;5384902;32;34161;-85
2023/07/31 04:25:26;;;;;;;3.40;2.30;;;;;;;18.50;100.00;100131.97;5398257;33;34067;-85
2023/07/31 04:28:31;;;;;;;3.00;2.40;;;;;;;18.52;100.00;100127.94;5398957;33;34711;-85
2023/07/31 04:31:34;;;;;;;3.75;2.08;;;;;;;18.51;100.00;100125.44;5401995;33;34039;-85
2023/07/31 04:34:41;;;;;;;2.47;2.10;;;;;;;18.53;100.00;100128.75;5385181;33;34519;-85
2023/07/31 04:37:46;;;;;;;2.80;2.08;;;;;;;18.46;100.00;100133.50;5397724;33;33907;-85
2023/07/31 04:40:49;;;;;;;2.60;1.90;;;;;;;18.48;100.00;100123.19;5384895;33;34416;-85
2023/07/31 04:43:52;;;;;;;2.40;2.20;;;;;;;18.50;100.00;100119.16;5397349;33;33876;-83
2023/07/31 04:46:55;;;;;;;2.87;2.00;;;;;;;18.51;100.00;100128.16;5396890;32;33409;-83
2023/07/31 04:49:57;;;;;;;1.80;1.70;;;;;;;18.55;100.00;100124.75;5397068;33;34858;-83
2023/07/31 04:53:00;;;;;;;2.22;2.00;;;;;;;18.55;100.00;100132.09;5396897;33;33623;-83
2023/07/31 04:56:03;;;;;;;2.30;2.10;;;;;;;18.62;100.00;100134.69;5397157;33;33528;-84
2023/07/31 04:59:06;;;;;;;3.40;2.20;;;;;;;18.67;100.00;100134.81;5397965;32;33931;-83
2023/07/31 05:02:11;;;;;;;2.42;1.73;;;;;;;18.64;100.00;100143.47;5396373;32;33939;-83
2023/07/31 05:05:14;;;;;;;1.77;1.65;;;;;;;18.59;100.00;100149.63;5396985;33;33643;-83
2023/07/31 05:08:20;;;;;;;1.70;1.60;;;;;;;18.51;100.00;100149.97;5398229;33;33867;-83
2023/07/31 05:11:23;;;;;;;2.50;1.67;;;;;;;18.57;100.00;100138.97;5396976;32;34484;-84
2023/07/31 05:14:26;;;;;;;2.60;1.58;;;;;;;18.60;100.00;100143.09;5384842;33;34624;-83
2023/07/31 05:17:29;;;;;;;2.80;1.90;;;;;;;18.65;100.00;100140.50;5397530;32;34977;-83
2023/07/31 05:20:32;;;;;;;2.17;1.98;;;;;;;18.66;100.00;100158.53;5398319;33;32980;-84
2023/07/31 05:23:34;;;;;;;3.17;1.87;;;;;;;18.69;100.00;100147.16;5385303;32;34837;-83
2023/07/31 05:26:37;;;;;;;2.05;1.80;;;;;;;18.75;100.00;100143.50;5396709;33;33573;-83
2023/07/31 05:29:41;;;;;;;3.72;1.98;;;;;;;18.82;100.00;100151.56;5396675;32;34594;-83
2023/07/31 05:32:44;;;;;;;1.80;1.50;;;;;;;18.87;100.00;100153.59;5384533;33;34265;-83
2023/07/31 05:35:47;;;;;;;2.55;1.48;;;;;;;18.89;100.00;100154.16;5397198;33;34613;-84
2023/07/31 05:38:49;;;;;;;4.60;1.83;;;;;;;18.98;100.00;100150.00;5397671;33;34046;-83
2023/07/31 05:41:52;;;;;;;2.35;1.83;;;;;;;19.17;100.00;100153.44;5396691;32;34694;-83
2023/07/31 05:44:55;;;;;;;4.10;1.70;;;;;;;19.37;100.00;100153.03;5397058;33;34333;-84
2023/07/31 05:47:58;;;;;;;2.75;1.20;;;;;;;19.42;100.00;100150.38;5396686;32;33680;-88
2023/07/31 05:51:01;;;;;;;1.45;1.33;;;;;;;19.41;100.00;100148.75;5396407;32;33357;-88
2023/07/31 05:54:04;;;;;;;2.55;1.50;;;;;;;19.48;100.00;100160.38;5397981;32;33558;-89
2023/07/31 05:57:07;;;;;;;2.87;1.42;;;;;;;19.69;100.00;100164.38;5396746;33;33515;-85
2023/07/31 06:00:11;;;;;;;3.37;1.73;;;;;;;19.85;100.00;100168.22;5396483;33;33593;-84
2023/07/31 06:03:14;;;;;;;3.12;1.55;;;;;;;20.01;99.26;100164.69;5395731;33;34598;-84
2023/07/31 06:06:17;;;;;;;3.12;1.55;;;;;;;20.03;98.58;100168.00;5397266;32;33834;-84
2023/07/31 06:09:20;;;;;;;4.93;1.65;;;;;;;20.02;97.29;100174.56;5398934;33;34584;-82
2023/07/31 06:12:23;;;;;;;1.52;1.40;;;;;;;19.96;98.17;100170.06;5400271;33;34289;-83
2023/07/31 06:15:26;;;;;;;1.95;1.52;;;;;;;20.16;98.26;100178.63;5397391;33;33737;-83
2023/07/31 06:18:28;;;;;;;3.28;1.35;;;;;;;20.28;96.08;100177.75;5384281;33;34384;-83
2023/07/31 06:21:31;;;;;;;3.33;1.30;;;;;;;20.14;95.69;100175.31;5396628;32;33935;-83
2023/07/31 06:24:34;;;;;;;2.42;1.55;;;;;;;20.17;94.97;100174.81;5396863;33;33829;-83
2023/07/31 06:27:37;;;;;;;3.22;1.40;;;;;;;20.42;95.73;100176.34;5398702;33;33752;-82
2023/07/31 06:30:40;;;;;;;1.58;1.48;;;;;;;20.58;94.06;100180.19;5402715;32;35557;-82
2023/07/31 06:33:43;;;;;;;5.72;1.50;;;;;;;20.91;92.80;100176.59;5400856;33;34709;-82
2023/07/31 06:36:45;;;;;;;6.20;1.60;;;;;;;21.01;90.79;100173.19;5405242;33;34148;-82
2023/07/31 06:39:48;;;;;;;2.00;1.73;;;;;;;21.25;90.12;100176.53;5391599;33;34661;-82
2023/07/31 06:42:51;;;;;;;2.92;1.50;;;;;;;21.38;90.16;100167.13;5406294;33;34944;-82
2023/07/31 06:45:54;;;;;;;3.17;1.75;;;;;;;21.61;87.78;100166.06;5384890;33;33501;-82
2023/07/31 06:48:57;;;;;;;3.03;1.35;;;;;;;21.71;88.63;100171.66;5396270;33;33764;-82
2023/07/31 06:52:00;;;;;;;3.75;1.75;;;;;;;21.57;86.97;100165.75;5395920;33;33849;-83
2023/07/31 06:55:17;;;;;;;1.40;1.30;;;;;;;21.39;87.40;100168.81;5384114;33;34537;-83
2023/07/31 06:58:20;;;;;;;3.70;1.50;;;;;;;21.20;89.69;100173.72;5411239;32;34734;-83
2023/07/31 07:01:23;;;;;;;1.92;1.50;;;;;;;21.16;88.80;100175.31;5409903;33;35255;-83
2023/07/31 07:04:26;;;;;;;1.77;1.65;;;;;;;20.97;91.19;100177.50;5404914;32;35293;-83
2023/07/31 07:07:29;;;;;;;1.90;1.73;;;;;;;20.94;91.83;100169.78;5371737;33;33838;-83
2023/07/31 07:10:32;;;;;;;4.57;1.92;;;;;;;20.81;93.25;100181.94;5384324;33;33500;-83
2023/07/31 07:13:35;;;;;;;2.12;1.27;;;;;;;20.77;92.72;100186.25;5394593;33;33698;-83
2023/07/31 07:16:41;;;;;;;2.03;1.70;;;;;;;20.81;92.37;100184.66;5395682;33;34621;-83
2023/07/31 07:19:45;;;;;;;3.25;1.62;;;;;;;21.00;91.54;100190.69;5383659;33;34344;-83
2023/07/31 07:22:48;;;;;;;2.15;1.75;;;;;;;21.13;91.94;100189.50;5397317;33;33832;-83
2023/07/31 07:25:51;;;;;;;2.53;2.05;;;;;;;21.32;89.06;100193.59;5395533;33;34340;-83
2023/07/31 07:28:57;;;;;;;4.70;1.80;;;;;;;21.33;89.65;100197.19;5395208;33;34419;-83
2023/07/31 07:32:03;;;;;;;3.92;1.90;;;;;;;21.59;88.32;100193.72;5397126;33;33926;-83
2023/07/31 07:35:07;;;;;;;5.30;2.03;;;;;;;21.59;86.06;100196.47;5395569;33;34598;-83
2023/07/31 07:38:09;;;;;;;3.17;2.22;;;;;;;21.72;85.47;100182.34;5386279;33;33695;-82
2023/07/31 07:41:12;;;;;;;1.67;1.50;;;;;;;21.86;84.62;100198.41;5386065;33;33889;-83
2023/07/31 07:44:15;;;;;;;2.92;1.40;;;;;;;21.72;83.29;100192.50;5395725;33;33470;-83
2023/07/31 07:47:18;;;;;;;2.65;1.70;;;;;;;21.90;81.67;100194.06;5395551;33;34907;-83
2023/07/31 07:50:21;;;;;;;3.28;1.73;;;;;;;22.17;80.94;100192.22;5396278;33;34652;-83
2023/07/31 07:53:24;;;;;;;2.10;1.60;;;;;;;22.17;79.84;100189.47;5383467;33;34064;-83
2023/07/31 07:56:27;;;;;;;2.97;1.80;;;;;;;22.16;79.46;100189.69;5379982;33;34677;-83
2023/07/31 07:59:30;;;;;;;2.90;1.30;;;;;;;22.05;79.95;100177.78;5384025;32;33219;-85
2023/07/31 08:02:33;;;;;;;1.70;1.60;;;;;;;21.99;80.18;100195.25;5370284;33;33806;-86
2023/07/31 08:05:36;;;;;;;2.55;1.92;;;;;;;21.51;77.58;100192.25;5377329;33;34772;-86
2023/07/31 08:08:39;;;;;;;2.15;1.50;;;;;;;21.23;77.89;100186.91;5364625;33;33975;-82
2023/07/31 08:11:42;;;;;;;3.60;2.45;;;;;;;21.31;77.29;100183.72;5365775;33;33613;-82
2023/07/31 08:14:44;;;;;;;1.87;1.40;;;;;;;21.68;74.74;100189.44;5387333;32;34568;-82
2023/07/31 08:17:47;;;;;;;1.55;1.33;;;;;;;21.98;73.75;100179.09;5377438;33;32139;-82
2023/07/31 08:20:50;;;;;;;1.67;1.35;;;;;;;22.30;71.98;100179.16;5379946;33;33756;-83
2023/07/31 08:23:54;;;;;;;1.95;1.77;;;;;;;22.57;70.52;100185.41;5378646;33;33498;-82
2023/07/31 08:26:56;;;;;;;2.12;1.50;;;;;;;22.67;68.53;100178.34;5366877;33;33941;-82
2023/07/31 08:29:59;;;;;;;3.00;1.40;;;;;;;22.89;66.73;100183.75;5393827;33;33891;-82
2023/07/31 08:33:02;;;;;;;1.42;1.30;;;;;;;23.17;65.56;100182.59;5372036;33;33907;-82
2023/07/31 08:36:06;;;;;;;2.17;1.48;;;;;;;23.31;63.35;100170.84;5396538;33;33802;-82
2023/07/31 08:39:08;;;;;;;1.52;1.30;;;;;;;23.31;65.18;100170.84;5398554;33;33883;-81
2023/07/31 08:42:12;;;;;;;1.62;1.52;;;;;;;23.46;63.67;100178.34;5399250;32;34038;-82
2023/07/31 08:45:17;;;;;;;2.42;1.80;;;;;;;23.39;65.95;100176.91;5398427;33;33548;-82
2023/07/31 08:48:22;;;;;;;3.17;1.55;;;;;;;23.61;65.00;100176.75;5398360;32;34463;-82
2023/07/31 08:51:25;;;;;;;3.55;1.75;;;;;;;23.60;61.81;100170.41;5393522;32;34259;-82
2023/07/31 08:54:30;;;;;;;3.92;1.73;;;;;;;23.71;61.38;100163.88;5398036;33;33873;-82
2023/07/31 08:57:36;;;;;;;1.73;1.60;;;;;;;23.79;62.91;100179.03;5384102;32;34091;-82
2023/07/31 09:00:40;;;;;;;3.25;1.40;;;;;;;23.98;59.22;100179.34;5397948;32;33867;-82
2023/07/31 09:03:44;;;;;;;2.58;1.50;;;;;;;23.99;58.82;100165.31;5397641;33;33840;-82
2023/07/31 09:06:48;;;;;;;2.55;1.37;;;;;;;24.09;58.04;100171.94;5396477;33;34575;-82
2023/07/31 09:09:51;;;;;;;1.40;1.30;;;;;;;23.93;58.48;100166.41;5377912;33;33954;-82
2023/07/31 09:12:55;;;;;;;4.45;1.83;;;;;;;24.07;57.26;100168.63;5366308;33;33566;-82
2023/07/31 09:15:58;;;;;;;1.95;1.80;;;;;;;24.04;55.76;100163.66;5366429;33;34532;-82
2023/07/31 09:19:03;;;;;;;2.50;1.55;;;;;;;24.27;55.51;100167.84;5378445;33;33523;-83
2023/07/31 09:22:06;;;;;;;9.10;1.83;;;;;;;24.37;58.88;100165.09;5379919;33;34024;-82
2023/07/31 09:25:29;;;;;;;1.55;1.30;;;;;;;24.56;58.20;100160.72;5379348;33;34910;-82
2023/07/31 09:28:32;;;;;;;4.45;1.40;;;;;;;24.36;58.33;100161.50;5379446;33;33957;-82
2023/07/31 09:31:43;;;;;;;2.85;1.20;;;;;;;24.34;58.22;100158.22;5368539;33;34935;-82
2023/07/31 09:34:46;;;;;;;2.72;1.62;;;;;;;24.20;56.54;100157.09;5389280;32;34464;-82
2023/07/31 09:37:55;;;;;;;3.90;1.73;;;;;;;24.44;56.61;100168.44;5375625;33;34623;-82
2023/07/31 09:40:59;;;;;;;2.22;1.80;;;;;;;24.60;56.87;100160.97;5398235;32;34441;-82
2023/07/31 09:44:02;;;;;;;3.95;1.75;;;;;;;24.76;55.90;100164.56;5398340;33;33511;-82
2023/07/31 09:47:05;;;;;;;5.50;1.30;;;;;;;24.74;52.58;100150.22;5397582;33;33676;-86
2023/07/31 09:50:09;;;;;;;3.60;1.48;;;;;;;24.81;53.15;100151.59;5384129;33;34187;-86
2023/07/31 09:53:12;;;;;;;2.05;1.40;;;;;;;24.65;52.35;100148.03;5396039;33;33910;-87
2023/07/31 09:56:17;;;;;;;2.58;1.60;;;;;;;24.79;52.33;100148.31;5395835;33;33815;-83
2023/07/31 09:59:20;;;;;;;1.60;1.45;;;;;;;24.62;53.72;100147.78;5396254;33;33910;-83
2023/07/31 10:02:30;;;;;;;2.78;1.48;;;;;;;24.60;55.33;100145.31;5396225;33;33530;-82
2023/07/31 10:05:47;;;;;;;3.05;1.42;;;;;;;24.69;55.40;100144.72;5396234;33;33538;-82
2023/07/31 10:08:53;;;;;;;2.20;1.00;;;;;;;24.82;54.99;100145.00;5396671;33;33852;-82
2023/07/31 10:12:00;;;;;;;2.35;1.40;;;;;;;24.97;53.30;100135.03;5396845;32;33866;-82
2023/07/31 10:15:04;;;;;;;2.03;1.60;;;;;;;25.19;52.94;100151.28;5395647;33;35054;-81
2023/07/31 10:18:07;;;;;;;3.17;1.30;;;;;;;25.51;50.63;100143.44;5397181;33;33670;-83
2023/07/31 10:21:11;;;;;;;3.35;1.30;;;;;;;25.61;51.06;100153.56;5396012;33;33901;-82
2023/07/31 10:24:15;;;;;;;4.97;1.27;;;;;;;25.70;49.68;100146.34;5396892;33;33608;-82
2023/07/31 10:27:18;;;;;;;2.87;1.35;;;;;;;25.70;48.99;100142.78;5395625;32;33507;-82
2023/07/31 10:30:25;;;;;;;1.95;1.30;;;;;;;26.06;48.46;100143.41;5384307;32;34642;-82
2023/07/31 10:33:29;;;;;;;2.12;1.48;;;;;;;26.16;48.08;100146.09;5396770;33;34574;-82
2023/07/31 10:36:33;;;;;;;4.00;1.40;;;;;;;26.29;47.05;100141.84;5396155;33;33686;-82
2023/07/31 10:39:39;;;;;;;2.45;1.40;;;;;;;26.40;48.28;100137.91;5400782;33;34184;-82
2023/07/31 10:42:49;;;;;;;2.05;1.37;;;;;;;26.54;47.83;100124.28;5406262;33;33738;-83
2023/07/31 10:45:53;;;;;;;3.17;1.50;;;;;;;27.00;46.90;100134.88;5403374;33;34033;-83
2023/07/31 10:48:59;;;;;;;6.25;1.65;;;;;;;27.22;46.29;100128.84;5396439;32;33450;-84
2023/07/31 10:52:04;;;;;;;3.65;1.12;;;;;;;27.45;45.17;100120.81;5398980;33;33871;-84
2023/07/31 10:55:26;;;;;;;2.70;1.55;;;;;;;27.62;45.18;100125.84;5397710;33;34179;-83
2023/07/31 10:58:31;;;;;;;3.53;1.60;;;;;;;27.89;44.33;100119.69;5396297;33;34591;-83
2023/07/31 11:01:54;;;;;;;4.65;1.40;;;;;;;28.06;44.25;100119.16;5395550;33;34212;-84
2023/07/31 11:05:17;;;;;;;2.95;1.12;;;;;;;28.09;45.91;100124.09;5395992;33;34699;-88
2023/07/31 11:08:24;;;;;;;1.40;1.02;;;;;;;28.48;42.38;100115.41;5395425;32;34928;-82
2023/07/31 11:11:27;;;;;;;3.45;1.25;;;;;;;29.00;41.50;100124.44;5399500;32;34384;-83
2023/07/31 11:14:30;;;;;;;0.70;0.70;;;;;;;28.75;40.14;100117.41;5384069;33;33755;-84
2023/07/31 11:17:33;;;;;;;2.92;1.10;;;;;;;29.17;39.23;100112.75;5397047;33;34789;-84
2023/07/31 11:20:37;;;;;;;2.05;1.00;;;;;;;29.82;38.72;100112.47;5395406;33;34042;-83
2023/07/31 11:23:40;;;;;;;3.03;1.12;;;;;;;30.47;36.62;100111.16;5397245;33;33978;-84
2023/07/31 11:26:53;;;;;;;2.20;1.00;;;;;;;31.12;37.38;100097.75;5383922;33;33815;-84
2023/07/31 11:30:02;;;;;;;1.70;1.00;;;;;;;30.68;35.75;100093.97;5395536;33;35219;-83
2023/07/31 11:33:06;;;;;;;2.05;1.10;;;;;;;30.48;35.69;100093.38;5397678;33;34530;-84
2023/07/31 11:36:20;;;;;;;2.72;1.37;;;;;;;31.10;34.28;100089.75;5395624;33;33438;-84
2023/07/31 11:39:23;;;;;;;1.33;1.02;;;;;;;32.12;32.91;100083.03;5396483;33;34802;-84
2023/07/31 11:42:26;;;;;;;2.30;0.95;;;;;;;33.12;30.57;100095.72;5383768;33;33539;-84
2023/07/31 11:45:30;;;;;;;1.73;1.10;;;;;;;34.09;30.32;100094.72;5395761;33;33826;-84
2023/07/31 11:48:36;;;;;;;2.05;1.00;;;;;;;34.25;29.33;100086.53;5394614;33;35053;-84
2023/07/31 11:51:39;;;;;;;2.75;1.17;;;;;;;34.18;28.41;100086.25;5394507;33;34956;-84
2023/07/31 11:54:42;;;;;;;4.15;1.00;;;;;;;34.66;27.39;100087.59;5394341;33;34954;-84
2023/07/31 11:57:47;;;;;;;2.12;0.80;;;;;;;35.11;27.28;100080.31;5382355;33;34518;-84
2023/07/31 12:00:51;;;;;;;3.42;1.00;;;;;;;36.52;25.31;100079.31;5395800;32;34572;-84
2023/07/31 12:03:56;;;;;;;3.42;1.08;;;;;;;37.33;24.39;100073.28;5396942;33;35217;-83
2023/07/31 12:07:00;;;;;;;2.08;1.00;;;;;;;38.37;24.28;100078.28;5398639;33;35624;-85
2023/07/31 12:10:04;;;;;;;3.65;0.85;;;;;;;37.86;22.96;100059.62;5397623;33;34951;-85
2023/07/31 12:13:15;;;;;;;2.40;0.98;;;;;;;37.93;23.78;100067.37;5396777;33;34183;-85
2023/07/31 12:16:18;;;;;;;3.20;1.10;;;;;;;38.27;23.52;100062.03;5397369;32;33985;-85
2023/07/31 12:19:21;;;;;;;1.58;0.90;;;;;;;39.01;22.10;100048.47;5384996;32;34630;-85
2023/07/31 12:22:26;;;;;;;1.25;0.60;;;;;;;39.23;22.66;100060.09;5384434;33;33790;-85
2023/07/31 12:25:33;;;;;;;1.52;0.80;;;;;;;38.85;22.11;100055.41;5384693;33;34670;-89
2023/07/31 12:28:40;;;;;;;8.45;1.67;;;;;;;39.97;22.07;100044.59;5380003;33;34366;-90
2023/07/31 12:31:43;;;;;;;;;;;;;;;39.10;22.11;100028.50;5380094;33;33415;-86
2023/07/31 12:34:46;;;;;;;4.00;0.90;;;;;;;38.72;21.77;100035.12;5379772;33;34172;-86
2023/07/31 12:37:49;;;;;;;4.62;0.90;;;;;;;40.25;21.31;100029.97;5378458;33;35554;-86
2023/07/31 12:40:52;;;;;;;1.77;0.88;;;;;;;40.69;20.49;100037.66;5390566;32;34463;-86
2023/07/31 12:43:55;;;;;;;1.80;0.60;;;;;;;40.50;20.81;100036.69;5379005;33;33938;-85
2023/07/31 12:46:58;;;;;;;0.85;0.80;;;;;;;41.68;20.50;100028.22;5378778;33;33903;-86
2023/07/31 12:50:01;;;;;;;3.10;0.85;;;;;;;40.18;20.57;100029.91;5390537;32;33866;-84
2023/07/31 12:53:04;;;;;;;2.78;0.82;;;;;;;41.00;21.01;100030.63;5390285;33;34558;-86
2023/07/31 12:56:07;;;;;;;1.48;0.88;;;;;;;41.35;19.43;100015.94;5379391;33;35243;-85
2023/07/31 12:59:10;;;;;;;3.70;1.10;;;;;;;40.98;19.69;100016.09;5378194;33;34542;-86
2023/07/31 13:02:13;;;;;;;3.53;1.20;;;;;;;40.52;20.20;100008.09;5378020;33;33465;-86
2023/07/31 13:05:16;;;;;;;1.75;0.93;;;;;;;41.80;19.69;100010.09;5392720;33;33384;-86
2023/07/31 13:08:19;;;;;;;1.58;0.80;;;;;;;41.77;19.17;100008.06;5397140;33;34678;-86
2023/07/31 13:11:22;;;;;;;1.83;0.85;;;;;;;42.09;18.64;99999.69;5396642;33;33882;-85
2023/07/31 13:14:25;;;;;;;3.45;1.25;;;;;;;41.61;18.67;100006.41;5383985;33;33591;-86
2023/07/31 13:17:27;;;;;;;1.73;0.82;;;;;;;41.20;19.28;100000.94;5384147;33;33462;-85
2023/07/31 13:20:30;;;;;;;2.00;0.85;;;;;;;40.94;19.29;100001.97;5396058;33;33824;-86
2023/07/31 13:23:33;;;;;;;2.10;0.80;;;;;;;41.84;18.82;100003.25;5396448;32;33802;-85
2023/07/31 13:26:37;;;;;;;2.00;0.85;;;;;;;41.92;18.31;100004.13;5396307;33;34038;-85
2023/07/31 13:29:40;;;;;;;1.85;0.85;;;;;;;40.61;19.53;99991.63;5400004;33;33832;-85
2023/07/31 13:32:43;;;;;;;1.25;0.90;;;;;;;41.89;19.83;99988.75;5401111;32;33744;-86
2023/07/31 13:35:46;;;;;;;3.40;0.93;;;;;;;41.30;19.24;99985.22;5399785;32;33758;-86
2023/07/31 13:38:49;;;;;;;1.67;0.90;;;;;;;39.40;20.61;99988.28;5386208;33;34172;-86
2023/07/31 13:41:52;;;;;;;4.47;1.12;;;;;;;41.31;19.26;99980.41;5401427;33;35156;-85
2023/07/31 13:44:56;;;;;;;2.80;0.95;;;;;;;40.98;19.65;99988.69;5397469;32;33678;-86
2023/07/31 13:47:59;;;;;;;2.10;1.08;;;;;;;41.13;19.29;99977.47;5384233;33;34088;-86
2023/07/31 13:51:02;;;;;;;5.55;1.15;;;;;;;39.89;20.18;99978.84;5396177;33;34956;-85
2023/07/31 13:54:06;;;;;;;2.25;1.12;;;;;;;39.42;20.46;99978.28;5397144;32;33864;-84
2023/07/31 13:57:09;;;;;;;3.40;0.93;;;;;;;39.93;20.51;99974.06;5395985;33;33859;-85
2023/07/31 14:00:13;;;;;;;4.80;0.98;;;;;;;38.20;21.93;99975.53;5396830;33;33889;-84
2023/07/31 14:03:16;;;;;;;4.22;0.93;;;;;;;37.45;22.19;99968.44;5396313;33;33996;-85
2023/07/31 14:06:19;;;;;;;5.95;0.98;;;;;;;35.98;24.29;99966.84;5396991;33;35126;-84
2023/07/31 14:09:22;;;;;;;1.75;1.08;;;;;;;35.54;24.77;99964.84;5396954;33;33839;-85
2023/07/31 14:12:25;;;;;;;3.40;0.85;;;;;;;35.92;24.16;99965.50;5395307;33;34382;-84
2023/07/31 14:15:44;;;;;;;3.00;1.00;;;;;;;35.94;24.48;99965.97;5385447;33;33737;-85
2023/07/31 14:18:47;;;;;;;2.37;1.10;;;;;;;34.24;26.35;99972.28;5395845;33;33760;-85
2023/07/31 14:21:53;;;;;;;1.65;1.00;;;;;;;32.69;28.25;99974.03;5383632;33;33566;-85
2023/07/31 14:25:13;;;;;;;1.08;0.85;;;;;;;31.80;29.55;99968.22;5396136;33;33750;-89
2023/07/31 14:28:16;;;;;;;3.42;1.08;;;;;;;30.77;31.48;99964.19;5397925;33;33583;-85
2023/07/31 14:31:18;;;;;;;1.02;0.80;;;;;;;30.36;32.17;99964.53;5403334;33;34004;-85
2023/07/31 14:34:21;;;;;;;3.15;1.23;;;;;;;30.01;33.01;99956.00;5400150;33;33510;-85
2023/07/31 14:37:27;;;;;;;1.67;0.98;;;;;;;29.70;34.38;99956.81;5395785;33;34152;-84
2023/07/31 14:40:30;;;;;;;2.62;1.05;;;;;;;29.68;34.25;99955.50;5396738;33;33474;-85
2023/07/31 14:43:33;;;;;;;2.25;1.10;;;;;;;29.86;33.78;99948.91;5383625;33;33576;-85
2023/07/31 14:46:36;;;;;;;2.22;1.25;;;;;;;29.98;33.48;99946.38;5396388;33;33848;-84
2023/07/31 14:49:39;;;;;;;3.47;1.20;;;;;;;29.71;33.88;99946.53;5384847;33;33975;-85
2023/07/31 14:52:42;;;;;;;3.10;1.33;;;;;;;29.41;35.03;99948.91;5397160;33;34926;-84
2023/07/31 14:55:44;;;;;;;1.77;1.25;;;;;;;29.48;35.10;99952.03;5395830;33;33588;-85
2023/07/31 14:58:47;;;;;;;1.77;0.90;;;;;;;28.88;34.82;99952.31;5398102;33;33918;-86
2023/07/31 15:01:50;;;;;;;1.80;1.05;;;;;;;29.10;34.40;99954.31;5383369;33;33957;-86
2023/07/31 15:04:53;;;;;;;1.27;0.98;;;;;;;29.17;34.09;99959.47;5396206;33;34208;-85
2023/07/31 15:07:56;;;;;;;3.90;1.10;;;;;;;29.36;34.00;99951.78;5392425;33;163453;-85
2023/07/31 15:10:59;;;;;;;2.62;1.25;;;;;;;28.66;34.82;99944.72;5406393;33;34108;-84
2023/07/31 15:14:02;;;;;;;3.25;1.30;;;;;;;28.68;35.27;99948.84;5413164;33;34458;-84
2023/07/31 15:17:05;;;;;;;4.00;1.02;;;;;;;28.51;35.21;99940.31;5413320;33;34995;-84
2023/07/31 15:20:09;;;;;;;4.55;1.10;;;;;;;28.20;36.00;99940.09;5386456;33;35368;-84
2023/07/31 15:23:16;;;;;;;2.80;1.25;;;;;;;27.84;36.49;99940.72;5383957;33;33790;-85
2023/07/31 15:26:19;;;;;;;3.22;1.20;;;;;;;27.73;37.36;99936.47;5395949;33;33851;-84
2023/07/31 15:29:22;;;;;;;1.60;1.33;;;;;;;27.18;37.86;99936.28;5396776;33;34594;-84
2023/07/31 15:32:24;;;;;;;1.65;1.02;;;;;;;27.02;38.35;99930.09;5387620;33;33554;-84
2023/07/31 15:35:27;;;;;;;5.50;1.17;;;;;;;26.84;38.22;99932.56;5398184;33;33639;-84
2023/07/31 15:38:30;;;;;;;2.55;1.30;;;;;;;26.88;39.24;99928.09;5398875;33;33871;-84
2023/07/31 15:41:33;;;;;;;1.67;1.10;;;;;;;26.94;38.33;99926.09;5401786;33;33685;-84
2023/07/31 15:44:36;;;;;;;1.27;1.17;;;;;;;26.89;38.44;99921.44;5383114;33;34025;-84
2023/07/31 15:47:39;;;;;;;1.40;1.10;;;;;;;26.84;38.92;99921.50;5383222;33;34663;-85
2023/07/31 15:50:41;;;;;;;2.03;1.17;;;;;;;26.74;37.92;99918.06;5383461;33;33482;-85
2023/07/31 15:53:44;;;;;;;1.65;1.20;;;;;;;26.50;38.29;99905.12;5394924;33;33770;-85
